Indira Gandhi International Airport
VIDP : now visible

Airfield :











YOU CAN JOIN US ON...

 
LOGIN :

Register | Disclaimer

   EN    FR    IT 

 









Legend :    VFR   Marginal VFR   IFR   Intensive IFR   Very Intensive IFR
Visi :
Ceiling :
>= 8 km
>= 3000ft
5 to 8 km
1000 to 3000 ft
1500m to 5 km
500 to 1000 ft
800 to 1500m
200 to 500 ft
< 800m
< 200 ft
Symbols :   Thunderstorms  Fog  Heavy snow  Heavy precipitations  Wind > 20 kt






- Airport Elevation : 777 ft
- IATA code : DEL


VIDP - Indira Gandhi International

CURRENT METAR :
  • 222330Z 14004KT 3000 BR FEW030 FEW040CB 29/25 Q1001 NOSIG

EXPIRED METARs :
  • 222300Z 14005KT 3000 BR FEW100 29/25 Q1001 NOSIG
  • 222230Z 14005KT 3000 BR FEW040 SCT100 29/25 Q1001 NOSIG
  • 222200Z 12004KT 3000 BR FEW040 SCT100 29/25 Q1001 NOSIG
  • 222130Z 10004KT 3000 BR FEW040 SCT100 29/25 Q1001 NOSIG
  • 222100Z 00000KT 3000 BR FEW040 SCT100 29/25 Q1001 NOSIG

TAF TAF VIDP
Valid from the 23 at 00:00 until the 24 at 06:00 UTC


222300Z 2300/2406 14005KT 2500 BR FEW040 SCT100
TEMPO 2301/2304 32010G20KT 1500 TSRA SCT030 FEW035CB BKN080
BECMG 2304/2306 15008KT 3500 HZ SCT040 SCT100
BECMG 2312/2319 15010G25KT 1500 TSRA FEW040CB BKN080
BECMG 2400/2402 VRB02KT 2200 BR FEW040 SCT100
BECMG 2403/2405 2500 BR HZ
VIDF FIR / Asia



MET'MAP, your aeronautical weather chart ! - Copyright ORBIFLY December 2007 - Disclaimer

ORBIFLY MET'MAP TEAM :

Programming & Development : Alexandra Zaïnal
Concept & original design : Baudouin d'Aumeries
Assistance for programming : Marc-Olivier Méhu
Technical & hardware support : Manuel Goepfert

Contact : metmap@orbifly.com




SOURCES & CREDITS :

   NOAA       Earth
Advisory